createdAt,value
2018-05-13T00:00:59.418Z,4.90
2018-05-13T00:03:26.854Z,5.70
2018-05-13T00:05:54.315Z,7.23
2018-05-13T00:08:21.792Z,10.17
2018-05-13T00:10:49.246Z,3.70
2018-05-13T00:13:16.702Z,8.10
2018-05-13T00:15:44.162Z,4.10
2018-05-13T00:18:11.610Z,4.20
2018-05-13T00:20:39.891Z,4.53
2018-05-13T00:23:07.458Z,4.03
2018-05-13T00:25:34.922Z,5.90
2018-05-13T00:28:02.367Z,9.00
2018-05-13T00:30:29.821Z,4.67
2018-05-13T00:32:57.281Z,5.10
2018-05-13T00:35:24.754Z,7.33
2018-05-13T00:37:52.298Z,7.07
2018-05-13T00:40:19.767Z,6.97
2018-05-13T00:42:47.206Z,8.27
2018-05-13T00:45:14.671Z,6.60
2018-05-13T00:47:42.130Z,5.97
2018-05-13T00:50:09.589Z,4.53
2018-05-13T00:52:37.143Z,6.47
2018-05-13T00:55:04.602Z,6.73
2018-05-13T00:57:32.037Z,4.60
2018-05-13T00:59:59.470Z,6.33
2018-05-13T01:02:27.799Z,6.33
2018-05-13T01:04:55.230Z,5.70
2018-05-13T01:07:22.661Z,5.60
2018-05-13T01:09:50.163Z,6.27
2018-05-13T01:12:17.614Z,10.70
2018-05-13T01:14:45.079Z,7.80
2018-05-13T01:17:12.630Z,5.20
2018-05-13T01:19:40.074Z,4.03
2018-05-13T01:22:07.549Z,5.57
2018-05-13T01:24:34.993Z,5.20
2018-05-13T01:27:03.157Z,5.70
2018-05-13T01:29:30.587Z,5.80
2018-05-13T01:31:58.090Z,12.83
2018-05-13T01:34:25.544Z,8.27
2018-05-13T01:36:53.007Z,5.77
2018-05-13T01:39:20.566Z,7.37
2018-05-13T01:41:48.010Z,5.27
2018-05-13T01:44:15.474Z,5.03
2018-05-13T01:46:42.906Z,5.27
2018-05-13T01:49:10.393Z,7.47
2018-05-13T01:51:37.855Z,7.03
2018-05-13T01:54:05.302Z,6.03
2018-05-13T01:56:32.759Z,7.30
2018-05-13T01:59:00.194Z,6.87
2018-05-13T02:01:27.637Z,6.90
2018-05-13T02:03:55.829Z,5.57
2018-05-13T02:06:23.266Z,6.13
2018-05-13T02:08:50.766Z,5.63
2018-05-13T02:11:18.202Z,6.17
2018-05-13T02:13:45.642Z,8.40
2018-05-13T02:16:13.070Z,4.73
2018-05-13T02:18:41.310Z,7.73
2018-05-13T02:21:08.771Z,7.07
2018-05-13T02:23:36.205Z,5.90
2018-05-13T02:26:03.681Z,5.37
2018-05-13T02:28:31.123Z,5.23
2018-05-13T02:30:59.003Z,4.53
2018-05-13T02:33:26.462Z,5.97
2018-05-13T02:35:53.910Z,8.20
2018-05-13T02:38:21.353Z,5.00
2018-05-13T02:40:48.829Z,7.33
2018-05-13T02:43:16.270Z,6.10
2018-05-13T02:45:43.693Z,6.10
2018-05-13T02:48:11.889Z,5.80
2018-05-13T02:50:39.374Z,6.90
2018-05-13T02:53:06.838Z,7.73
2018-05-13T02:55:34.298Z,6.77
2018-05-13T02:58:01.847Z,9.13
2018-05-13T03:00:29.279Z,5.00
2018-05-13T03:02:56.715Z,5.90
2018-05-13T03:05:24.218Z,5.90
2018-05-13T03:07:51.774Z,9.40
2018-05-13T03:10:19.209Z,6.30
2018-05-13T03:12:46.694Z,5.20
2018-05-13T03:15:14.150Z,7.10
2018-05-13T03:17:41.580Z,7.53
2018-05-13T03:20:09.014Z,7.63
2018-05-13T03:22:37.240Z,9.10
2018-05-13T03:25:04.678Z,6.33
2018-05-13T03:27:32.106Z,5.43
2018-05-13T03:29:59.611Z,6.37
2018-05-13T03:32:27.158Z,6.37
2018-05-13T03:34:54.593Z,6.00
2018-05-13T03:37:22.079Z,6.90
2018-05-13T03:39:49.639Z,6.00
2018-05-13T03:42:17.096Z,6.70
2018-05-13T03:44:44.549Z,7.70
2018-05-13T03:47:12.010Z,7.00
2018-05-13T03:49:39.463Z,6.43
2018-05-13T03:52:06.891Z,5.67
2018-05-13T03:54:34.995Z,6.93
2018-05-13T03:57:02.550Z,6.30
2018-05-13T03:59:29.980Z,6.40
2018-05-13T04:01:57.406Z,7.47
2018-05-13T04:04:25.621Z,7.77
2018-05-13T04:06:53.099Z,7.07
2018-05-13T04:09:32.534Z,6.70
2018-05-13T04:12:11.768Z,7.47
2018-05-13T04:14:51.212Z,7.23
2018-05-13T04:17:18.664Z,6.60
2018-05-13T04:19:46.106Z,6.47
2018-05-13T04:22:13.579Z,8.10
2018-05-13T04:24:41.015Z,6.77
2018-05-13T04:27:08.446Z,7.00
2018-05-13T04:29:35.942Z,8.70
2018-05-13T04:32:03.407Z,8.10
2018-05-13T04:34:30.863Z,10.20
2018-05-13T04:36:58.310Z,10.63
2018-05-13T04:39:25.762Z,9.33
2018-05-13T04:41:53.223Z,9.60
2018-05-13T04:44:20.689Z,7.43
2018-05-13T04:46:48.144Z,8.10
2018-05-13T04:49:15.602Z,7.17
2018-05-13T04:51:43.780Z,8.40
2018-05-13T04:54:11.212Z,8.20
2018-05-13T04:56:38.671Z,7.13
2018-05-13T04:59:06.102Z,7.43
2018-05-13T05:01:33.530Z,8.93
2018-05-13T05:04:01.061Z,7.40
2018-05-13T05:06:28.524Z,7.77
2018-05-13T05:08:56.024Z,9.97
2018-05-13T05:11:23.425Z,8.73
2018-05-13T05:13:50.862Z,7.03
2018-05-13T05:16:18.348Z,9.37
2018-05-13T05:18:45.788Z,8.00
2018-05-13T05:21:13.220Z,6.50
2018-05-13T05:23:40.654Z,8.17
2018-05-13T05:26:09.563Z,13.73
2018-05-13T05:28:37.064Z,8.70
2018-05-13T05:31:04.515Z,8.73
2018-05-13T05:33:32.034Z,6.93
2018-05-13T05:35:59.385Z,8.60
2018-05-13T05:38:27.585Z,7.37
2018-05-13T05:40:55.075Z,7.83
2018-05-13T05:43:22.518Z,8.70
2018-05-13T05:45:49.974Z,11.23
2018-05-13T05:48:17.489Z,8.17
2018-05-13T05:50:44.893Z,12.67
2018-05-13T05:53:12.349Z,7.37
2018-05-13T05:55:39.804Z,7.30
2018-05-13T05:58:07.242Z,7.87
2018-05-13T06:00:34.678Z,7.40
2018-05-13T06:03:02.131Z,8.83
2018-05-13T06:05:30.346Z,7.53
2018-05-13T06:07:58.089Z,6.00
2018-05-13T06:10:25.535Z,14.13
2018-05-13T06:12:52.974Z,12.20
2018-05-13T06:15:21.198Z,11.50
2018-05-13T06:17:48.634Z,10.27
2018-05-13T06:20:16.070Z,9.43
2018-05-13T06:22:43.570Z,8.57
2018-05-13T06:25:11.033Z,9.80
2018-05-13T06:27:38.443Z,8.70
2018-05-13T06:30:05.951Z,12.10
2018-05-13T06:32:33.394Z,10.40
2018-05-13T06:35:00.854Z,10.23
2018-05-13T06:37:28.316Z,10.67
2018-05-13T06:39:55.778Z,11.50
2018-05-13T06:42:23.202Z,8.60
2018-05-13T06:44:50.688Z,10.80
2018-05-13T06:47:18.138Z,11.73
2018-05-13T06:49:45.605Z,10.33
2018-05-13T06:52:13.050Z,16.30
2018-05-13T06:54:41.226Z,9.20
2018-05-13T06:57:08.666Z,15.57
2018-05-13T06:59:36.123Z,10.93
2018-05-13T07:02:03.598Z,12.07
2018-05-13T07:04:31.054Z,11.60
2018-05-13T07:06:58.621Z,10.50
2018-05-13T07:09:26.078Z,11.43
2018-05-13T07:11:53.534Z,12.00
2018-05-13T07:14:20.974Z,12.33
2018-05-13T07:16:48.419Z,12.90
2018-05-13T07:19:15.911Z,14.93
2018-05-13T07:21:43.354Z,15.70
2018-05-13T07:24:10.818Z,11.40
2018-05-13T07:26:38.370Z,11.40
2018-05-13T07:29:05.831Z,14.10
2018-05-13T07:31:33.286Z,17.17
2018-05-13T07:34:00.847Z,14.97
2018-05-13T07:36:28.278Z,12.60
2018-05-13T07:38:55.762Z,12.07
2018-05-13T07:41:23.218Z,10.53
2018-05-13T07:43:50.778Z,12.60
2018-05-13T07:46:18.235Z,10.20
2018-05-13T07:48:45.670Z,13.47
2018-05-13T07:51:13.116Z,12.23
2018-05-13T07:53:40.549Z,11.97
2018-05-13T07:56:08.781Z,10.40
2018-05-13T07:58:36.230Z,10.37
2018-05-13T08:01:03.670Z,14.67
2018-05-13T08:03:31.110Z,11.40
2018-05-13T08:05:58.542Z,11.77
2018-05-13T08:08:26.750Z,14.60
2018-05-13T08:10:54.202Z,10.90
2018-05-13T08:13:21.630Z,14.27
2018-05-13T08:15:49.836Z,16.90
2018-05-13T08:18:17.330Z,17.57
2018-05-13T08:20:44.778Z,14.30
2018-05-13T08:23:12.325Z,14.10
2018-05-13T08:25:39.794Z,11.50
2018-05-13T08:28:07.241Z,15.00
2018-05-13T08:30:34.706Z,15.90
2018-05-13T08:33:02.166Z,16.40
2018-05-13T08:35:29.624Z,19.77
2018-05-13T08:37:57.070Z,26.70
2018-05-13T08:40:24.516Z,21.83
2018-05-13T08:42:51.946Z,16.37
2018-05-13T08:45:19.390Z,15.57
2018-05-13T08:47:47.590Z,26.17
2018-05-13T08:50:15.033Z,23.67
2018-05-13T08:52:43.237Z,25.30
2018-05-13T08:55:10.683Z,19.67
2018-05-13T08:57:38.118Z,24.60
2018-05-13T09:00:06.342Z,19.30
2018-05-13T09:02:33.777Z,20.80
2018-05-13T09:05:01.218Z,18.90
2018-05-13T09:07:28.665Z,16.80
2018-05-13T09:09:56.885Z,19.13
2018-05-13T09:12:24.326Z,19.63
2018-05-13T09:14:51.764Z,19.23
2018-05-13T09:17:19.225Z,18.77
2018-05-13T09:19:46.666Z,22.13
2018-05-13T09:22:14.866Z,21.90
2018-05-13T09:24:42.310Z,23.17
2018-05-13T09:27:09.759Z,20.70
2018-05-13T09:29:37.199Z,20.50
2018-05-13T09:32:05.410Z,19.50
2018-05-13T09:34:32.847Z,15.20
2018-05-13T09:37:00.287Z,21.40
2018-05-13T09:39:28.563Z,22.47
2018-05-13T09:41:55.930Z,23.17
2018-05-13T09:44:23.390Z,18.60
2018-05-13T09:46:50.826Z,17.87
2018-05-13T09:49:19.040Z,18.30
2018-05-13T09:51:46.474Z,17.50
2018-05-13T09:54:14.673Z,17.20
2018-05-13T09:56:42.116Z,17.37
2018-05-13T09:59:09.555Z,21.33
2018-05-13T10:01:37.766Z,17.30
2018-05-13T10:04:05.304Z,22.43
2018-05-13T10:06:32.662Z,16.97
2018-05-13T10:09:00.102Z,21.13
2018-05-13T10:11:28.316Z,22.60
2018-05-13T10:13:55.749Z,19.50
2018-05-13T10:16:23.190Z,19.53
2018-05-13T10:18:51.391Z,16.30
2018-05-13T10:21:18.830Z,14.67
2018-05-13T10:23:46.306Z,14.20
2018-05-13T10:26:13.726Z,11.97
2018-05-13T10:28:41.923Z,13.67
2018-05-13T10:31:09.373Z,11.60
2018-05-13T10:33:36.812Z,12.37
2018-05-13T10:36:05.010Z,8.90
2018-05-13T10:38:32.458Z,8.67
2018-05-13T10:40:59.886Z,7.07
2018-05-13T10:43:27.322Z,8.20
2018-05-13T10:45:54.764Z,9.90
2018-05-13T10:48:22.218Z,8.73
2018-05-13T10:50:49.649Z,7.17
2018-05-13T10:53:17.085Z,6.60
2018-05-13T10:55:45.283Z,6.67
2018-05-13T10:58:12.718Z,5.40
2018-05-13T11:00:41.027Z,10.50
2018-05-13T11:03:08.450Z,6.70
2018-05-13T11:05:36.650Z,5.93
2018-05-13T11:08:04.086Z,6.50
2018-05-13T11:10:32.290Z,9.00
2018-05-13T11:12:59.722Z,4.60
2018-05-13T11:15:27.157Z,4.40
2018-05-13T11:17:55.363Z,7.57
2018-05-13T11:20:22.790Z,7.60
2018-05-13T11:22:50.999Z,15.40
2018-05-13T11:25:18.490Z,13.17
2018-05-13T11:27:45.915Z,7.20
2018-05-13T11:30:13.342Z,7.57
2018-05-13T11:32:41.599Z,6.37
2018-05-13T11:35:09.826Z,6.40
2018-05-13T11:37:37.262Z,6.53
2018-05-13T11:40:04.691Z,7.90
2018-05-13T11:42:32.140Z,6.50
2018-05-13T11:44:59.582Z,5.20
2018-05-13T11:47:27.014Z,6.33
2018-05-13T11:49:54.445Z,8.90
2018-05-13T11:52:21.886Z,7.53
2018-05-13T11:54:50.074Z,6.43
2018-05-13T11:57:17.522Z,6.93
2018-05-13T11:59:45.714Z,6.13
2018-05-13T12:02:13.166Z,5.80
2018-05-13T12:04:40.590Z,6.10
2018-05-13T12:07:08.027Z,5.10
2018-05-13T12:09:35.454Z,6.13
2018-05-13T12:12:02.894Z,9.03
2018-05-13T12:14:30.326Z,5.10
2018-05-13T12:16:58.535Z,8.50
2018-05-13T12:19:25.978Z,5.97
2018-05-13T12:21:53.423Z,5.13
2018-05-13T12:24:21.619Z,5.67
2018-05-13T12:26:49.046Z,5.70
2018-05-13T12:29:17.259Z,4.13
2018-05-13T12:31:44.678Z,6.43
2018-05-13T12:34:12.880Z,6.20
2018-05-13T12:36:40.311Z,5.43
2018-05-13T12:39:08.510Z,7.50
2018-05-13T12:41:35.938Z,7.40
2018-05-13T12:44:04.142Z,4.97
2018-05-13T12:46:31.577Z,3.67
2018-05-13T12:48:59.775Z,5.40
2018-05-13T12:51:27.246Z,3.57
2018-05-13T12:53:54.875Z,6.60
2018-05-13T12:56:22.327Z,4.17
2018-05-13T12:58:50.616Z,4.50
2018-05-13T13:01:18.056Z,3.70
2018-05-13T13:03:46.311Z,3.70
2018-05-13T13:06:13.801Z,3.80
2018-05-13T13:08:41.246Z,3.87
2018-05-13T13:11:09.450Z,3.90
2018-05-13T13:13:36.873Z,3.70
2018-05-13T13:16:05.082Z,4.50
2018-05-13T13:18:32.512Z,6.60
2018-05-13T13:21:00.732Z,5.07
2018-05-13T13:23:28.154Z,4.03
2018-05-13T13:25:55.602Z,5.33
2018-05-13T13:28:23.795Z,5.27
2018-05-13T13:30:51.228Z,5.33
2018-05-13T13:33:19.430Z,4.93
2018-05-13T13:35:46.859Z,4.13
2018-05-13T13:38:15.067Z,4.67
2018-05-13T13:40:42.497Z,5.67
2018-05-13T13:43:09.931Z,3.67
2018-05-13T13:45:38.122Z,3.53
2018-05-13T13:48:06.314Z,3.93
2018-05-13T13:50:33.750Z,4.20
2018-05-13T13:53:01.978Z,2.70
2018-05-13T13:55:29.402Z,3.70
2018-05-13T13:57:56.845Z,3.60
2018-05-13T14:00:24.277Z,3.20
2018-05-13T14:02:52.474Z,3.50
2018-05-13T14:05:20.681Z,5.90
2018-05-13T14:07:48.119Z,2.93
2018-05-13T14:10:15.553Z,3.53
2018-05-13T14:12:43.766Z,3.10
2018-05-13T14:15:11.198Z,2.43
2018-05-13T14:17:38.630Z,2.30
2018-05-13T14:20:06.914Z,2.30
2018-05-13T14:22:34.274Z,2.50
2018-05-13T14:25:02.497Z,2.70
2018-05-13T14:27:29.939Z,2.20
2018-05-13T14:29:57.381Z,3.65
2018-05-13T14:32:24.814Z,8.87
2018-05-13T14:34:53.041Z,3.57
2018-05-13T14:37:20.468Z,2.37
2018-05-13T14:39:48.018Z,2.77
2018-05-13T14:42:16.106Z,3.03
2018-05-13T14:44:43.535Z,4.07
2018-05-13T14:47:11.733Z,3.10
2018-05-13T14:49:39.163Z,3.60
2018-05-13T14:52:07.375Z,2.90
2018-05-13T14:54:34.810Z,2.00
2018-05-13T14:57:02.237Z,2.80
2018-05-13T14:59:30.508Z,2.50
2018-05-13T15:01:57.938Z,3.80
2018-05-13T15:04:25.373Z,3.40
2018-05-13T15:06:52.819Z,3.27
2018-05-13T15:09:22.151Z,2.60
2018-05-13T15:11:48.463Z,2.70
2018-05-13T15:14:15.921Z,1.80
2018-05-13T15:16:43.351Z,2.23
2018-05-13T15:19:11.539Z,2.87
2018-05-13T15:21:38.998Z,2.67
2018-05-13T15:24:06.450Z,2.60
2018-05-13T15:26:33.882Z,3.00
2018-05-13T15:29:02.132Z,2.63
2018-05-13T15:31:29.544Z,2.13
2018-05-13T15:33:56.986Z,1.77
2018-05-13T15:36:24.425Z,2.87
2018-05-13T15:38:52.624Z,2.70
2018-05-13T15:41:20.075Z,3.80
2018-05-13T15:43:47.506Z,2.40
2018-05-13T15:46:15.698Z,2.20
2018-05-13T15:48:43.149Z,1.93
2018-05-13T15:51:11.344Z,2.50
2018-05-13T15:53:38.782Z,1.90
2018-05-13T15:56:06.221Z,2.28
2018-05-13T15:58:33.658Z,2.33
2018-05-13T16:01:01.107Z,3.00
2018-05-13T16:03:28.538Z,2.43
2018-05-13T16:05:55.985Z,1.80
2018-05-13T16:08:23.417Z,2.33
2018-05-13T16:10:51.618Z,5.37
2018-05-13T16:13:19.050Z,6.37
2018-05-13T16:15:47.262Z,4.10
2018-05-13T16:18:14.708Z,1.97
2018-05-13T16:20:42.142Z,2.37
2018-05-13T16:23:09.575Z,5.63
2018-05-13T16:25:37.792Z,1.97
2018-05-13T16:28:05.214Z,2.50
2018-05-13T16:30:33.421Z,2.00
2018-05-13T16:33:00.850Z,2.20
2018-05-13T16:35:29.058Z,2.40
2018-05-13T16:37:56.493Z,2.60
2018-05-13T16:40:23.926Z,2.33
2018-05-13T16:42:52.137Z,2.40
2018-05-13T16:45:19.571Z,2.50
2018-05-13T16:47:47.774Z,2.50
2018-05-13T16:50:15.215Z,2.90
2018-05-13T16:52:42.655Z,2.37
2018-05-13T16:55:10.860Z,4.17
2018-05-13T16:57:38.301Z,2.60
2018-05-13T17:00:05.758Z,1.83
2018-05-13T17:02:33.308Z,2.97
2018-05-13T17:05:00.646Z,2.30
2018-05-13T17:07:28.846Z,1.97
2018-05-13T17:09:56.286Z,4.00
2018-05-13T17:12:24.492Z,2.57
2018-05-13T17:14:51.923Z,2.70
2018-05-13T17:17:19.371Z,3.80
2018-05-13T17:19:47.583Z,2.53
2018-05-13T17:22:15.021Z,2.33
2018-05-13T17:24:42.471Z,4.80
2018-05-13T17:27:09.910Z,3.47
2018-05-13T17:29:38.110Z,7.67
2018-05-13T17:32:06.813Z,8.70
2018-05-13T17:34:35.315Z,13.30
2018-05-13T17:37:04.645Z,7.90
2018-05-13T17:39:33.395Z,2.83
2018-05-13T17:42:02.801Z,4.23
2018-05-13T17:44:33.329Z,6.13
2018-05-13T17:47:02.564Z,3.10
2018-05-13T17:49:31.847Z,3.00
2018-05-13T17:51:59.393Z,3.43
2018-05-13T17:54:26.816Z,4.10
2018-05-13T17:56:54.251Z,3.30
2018-05-13T17:59:22.457Z,4.40
2018-05-13T18:01:49.890Z,3.70
2018-05-13T18:04:17.334Z,11.60
2018-05-13T18:06:45.863Z,8.60
2018-05-13T18:09:13.625Z,5.57
2018-05-13T18:11:41.133Z,5.03
2018-05-13T18:14:08.514Z,5.13
2018-05-13T18:16:36.038Z,5.80
2018-05-13T18:19:03.473Z,4.30
2018-05-13T18:21:30.940Z,4.23
2018-05-13T18:23:58.363Z,6.30
2018-05-13T18:26:25.804Z,5.27
2018-05-13T18:28:53.234Z,6.53
2018-05-13T18:31:21.454Z,3.97
2018-05-13T18:33:48.887Z,6.23
2018-05-13T18:36:16.337Z,7.80
2018-05-13T18:38:43.768Z,5.50
2018-05-13T18:41:11.200Z,9.20
2018-05-13T18:43:38.638Z,7.13
2018-05-13T18:46:06.079Z,6.97
2018-05-13T18:48:33.532Z,7.03
2018-05-13T18:51:00.978Z,5.17
2018-05-13T18:53:28.409Z,8.50
2018-05-13T18:55:55.841Z,7.60
2018-05-13T18:58:23.290Z,7.07
2018-05-13T19:00:50.722Z,8.83
2018-05-13T19:03:18.159Z,8.90
2018-05-13T19:05:45.599Z,6.87
2018-05-13T19:08:13.790Z,8.10
2018-05-13T19:10:41.234Z,5.90
2018-05-13T19:13:09.439Z,8.20
2018-05-13T19:15:36.875Z,14.13
2018-05-13T19:18:04.306Z,8.97
2018-05-13T19:20:31.745Z,7.70
2018-05-13T19:22:59.175Z,9.37
2018-05-13T19:25:26.619Z,7.90
2018-05-13T19:27:54.059Z,5.23
2018-05-13T19:30:21.485Z,8.97
2018-05-13T19:32:48.923Z,8.60
2018-05-13T19:35:16.355Z,6.53
2018-05-13T19:37:43.791Z,4.47
2018-05-13T19:40:11.227Z,9.60
2018-05-13T19:42:39.451Z,6.10
2018-05-13T19:45:06.878Z,6.90
2018-05-13T19:47:34.315Z,7.13
2018-05-13T19:50:02.520Z,4.90
2018-05-13T19:52:29.955Z,5.63
2018-05-13T19:54:58.155Z,5.37
2018-05-13T19:57:25.588Z,5.97
2018-05-13T19:59:53.014Z,5.97
2018-05-13T20:02:20.449Z,4.07
2018-05-13T20:04:47.876Z,4.33
2018-05-13T20:07:15.318Z,3.57
2018-05-13T20:09:42.820Z,7.20
2018-05-13T20:12:10.946Z,4.37
2018-05-13T20:14:38.382Z,6.20
2018-05-13T20:17:06.582Z,7.40
2018-05-13T20:19:34.041Z,5.60
2018-05-13T20:22:01.483Z,4.37
2018-05-13T20:24:29.693Z,7.90
2018-05-13T20:26:57.163Z,4.60
2018-05-13T20:29:24.625Z,9.20
2018-05-13T20:31:52.078Z,5.90
2018-05-13T20:34:19.534Z,4.30
2018-05-13T20:36:47.398Z,5.07
2018-05-13T20:39:14.858Z,4.87
2018-05-13T20:41:42.328Z,3.27
2018-05-13T20:44:09.872Z,5.73
2018-05-13T20:46:37.326Z,8.23
2018-05-13T20:49:04.786Z,3.43
2018-05-13T20:51:32.222Z,4.30
2018-05-13T20:53:59.662Z,7.33
2018-05-13T20:56:27.158Z,5.77
2018-05-13T20:58:54.592Z,3.13
2018-05-13T21:01:22.070Z,2.73
2018-05-13T21:03:49.631Z,3.40
2018-05-13T21:06:17.069Z,3.23
2018-05-13T21:08:44.542Z,3.70
2018-05-13T21:11:12.002Z,8.57
2018-05-13T21:13:39.439Z,5.10
2018-05-13T21:16:06.964Z,3.60
2018-05-13T21:18:34.370Z,4.67
2018-05-13T21:21:01.830Z,2.60
2018-05-13T21:23:29.265Z,3.17
2018-05-13T21:25:57.156Z,4.50
2018-05-13T21:28:24.578Z,4.70
2018-05-13T21:30:52.026Z,3.13
2018-05-13T21:33:19.460Z,3.70
2018-05-13T21:35:47.706Z,23.13
2018-05-13T21:38:15.154Z,9.40
2018-05-13T21:40:42.610Z,5.80
2018-05-13T21:43:10.071Z,6.93
2018-05-13T21:45:37.526Z,2.53
2018-05-13T21:48:04.966Z,2.80
2018-05-13T21:50:32.561Z,3.47
2018-05-13T21:53:00.099Z,4.10
2018-05-13T21:55:27.526Z,3.47
2018-05-13T21:57:54.966Z,2.47
2018-05-13T22:00:23.171Z,2.40
2018-05-13T22:02:50.643Z,2.80
2018-05-13T22:05:18.306Z,2.40
2018-05-13T22:07:45.737Z,5.00
2018-05-13T22:10:13.217Z,2.10
2018-05-13T22:12:40.652Z,2.20
2018-05-13T22:15:08.110Z,2.70
2018-05-13T22:17:35.651Z,2.57
2018-05-13T22:20:03.023Z,1.67
2018-05-13T22:22:30.480Z,1.80
2018-05-13T22:24:58.195Z,1.50
2018-05-13T22:27:25.632Z,3.20
2018-05-13T22:29:53.056Z,2.00
2018-05-13T22:32:20.494Z,4.67
2018-05-13T22:34:47.926Z,1.70
2018-05-13T22:37:16.126Z,2.93
2018-05-13T22:39:43.622Z,2.10
2018-05-13T22:42:11.082Z,2.90
2018-05-13T22:44:38.525Z,1.90
2018-05-13T22:47:05.989Z,2.50
2018-05-13T22:49:33.450Z,2.97
2018-05-13T22:52:00.886Z,2.30
2018-05-13T22:54:28.325Z,5.43
2018-05-13T22:56:55.818Z,2.73
2018-05-13T22:59:23.281Z,2.60
2018-05-13T23:01:50.713Z,2.87
2018-05-13T23:04:18.194Z,2.30
2018-05-13T23:06:45.955Z,2.40
2018-05-13T23:09:13.426Z,2.47
2018-05-13T23:11:40.874Z,2.87
2018-05-13T23:14:08.742Z,3.03
2018-05-13T23:16:36.195Z,4.27
2018-05-13T23:19:03.636Z,2.80
2018-05-13T23:21:31.066Z,3.83
2018-05-13T23:23:58.498Z,2.33
2018-05-13T23:26:26.022Z,7.20
2018-05-13T23:28:53.456Z,1.83
2018-05-13T23:31:20.886Z,2.23
2018-05-13T23:33:49.102Z,2.20
2018-05-13T23:36:16.572Z,3.07
2018-05-13T23:38:44.026Z,2.23
2018-05-13T23:41:11.531Z,2.70
2018-05-13T23:43:38.938Z,3.10
2018-05-13T23:46:06.397Z,3.00
2018-05-13T23:48:34.479Z,4.17
2018-05-13T23:51:02.034Z,2.50
2018-05-13T23:53:29.471Z,2.30
2018-05-13T23:55:56.952Z,3.17
2018-05-13T23:58:24.497Z,5.80
